This is the latest recevied weather packets stored in our database for station/object KD5UMO-1. If no packets are shown the sender has not sent any weather packets the latest 10 day(s).
| Time | Temp. | Humidity | Pressure | Rain* | Wind** | Luminosity | Snow |
|---|---|---|---|---|---|---|---|
| 1777918451 | 26.11° C | 50% | 1011 hPa | 0 mm | - | 780 W/m² | - |
| 1777918150 | 26.67° C | 49% | 1010.8 hPa | 0 mm | - | 964 W/m² | - |
| 1777917848 | 26.11° C | 49% | 1010.9 hPa | 0 mm | - | 821 W/m² | - |
| 1777917547 | 26.11° C | 49% | 1010.8 hPa | 0 mm | - | 738 W/m² | - |
| 1777917243 | 26.11° C | 50% | 1011 hPa | 0 mm | - | 960 W/m² | - |
| 1777916941 | 25.56° C | 51% | 1011.3 hPa | 0 mm | - | 875 W/m² | - |
| 1777916638 | 25.56° C | 50% | 1011.3 hPa | 0 mm | - | 915 W/m² | - |
| 1777916335 | 25° C | 51% | 1011.5 hPa | 0 mm | - | 947 W/m² | - |
| 1777916031 | 25° C | 51% | 1011.5 hPa | 0 mm | - | 857 W/m² | - |
| 1777915729 | 25° C | 50% | 1011.5 hPa | 0 mm | - | 872 W/m² | - |
| 1777915425 | 25° C | 50% | 1011.6 hPa | 0 mm | - | 755 W/m² | - |
| 1777915121 | 25° C | 50% | 1011.8 hPa | 0 mm | - | 662 W/m² | - |
| 1777914818 | 25° C | 48% | 1011.9 hPa | 0 mm | - | 689 W/m² | - |
| 1777914516 | 25.56° C | 48% | 1011.8 hPa | 0 mm | - | 879 W/m² | - |
| 1777914212 | 25° C | 48% | 1012.4 hPa | 0 mm | - | 819 W/m² | - |
| 1777913909 | 24.44° C | 49% | 1012.3 hPa | 0 mm | - | 812 W/m² | - |
| 1777913605 | 23.89° C | 50% | 1012.4 hPa | 0 mm | - | 835 W/m² | - |
| 1777913301 | 23.89° C | 50% | 1012.5 hPa | 0 mm | - | 653 W/m² | - |
| 1777912999 | 24.44° C | 49% | 1012.7 hPa | 0 mm | - | 746 W/m² | - |
| 1777912695 | 23.89° C | 51% | 1012.7 hPa | 0 mm | - | 787 W/m² | - |
| 1777912391 | 23.33° C | 50% | 1012.7 hPa | 0 mm | - | 753 W/m² | - |
| 1777912087 | 24.44° C | 49% | 1012.7 hPa | 0 mm | - | 691 W/m² | - |
| 1777911783 | 23.89° C | 52% | 1012.7 hPa | 0 mm | - | 715 W/m² | - |
| 1777911480 | 23.89° C | 52% | 1012.6 hPa | 0 mm | - | 597 W/m² | - |
| 1777911177 | 23.33° C | 53% | 1012.7 hPa | 0 mm | - | 648 W/m² | - |
* Rain latest hour (hover to see other rain measurements)
** Current wind speed in m/s (hover to see current wind gust speed)